Time;durP1;ratioP1;P1;durP2;ratioP2;P2;SDS_P1;SDS_P2;PMS_P1;PMS_P2;Temp;Humidity;BMP_temperature;BMP_pressure;BME280_temperature;BME280_humidity;BME280_pressure;Samples;Min_cycle;Max_cycle;Signal;HPM_P1;HPM_P2
2021/12/17 00:00:59;;;;;;;28.77;25.83;;;;;;;7.36;78.01;100740.94;4121839;28;20296;-48
2021/12/17 00:05:10;;;;;;;29.88;25.65;;;;;;;7.44;77.60;100743.63;4142351;28;20237;-48
2021/12/17 00:07:14;;;;;;;40.13;26.42;;;;;;;7.43;77.28;100741.94;4125422;28;20210;-49
2021/12/17 00:09:16;;;;;;;28.58;25.60;;;;;;;7.39;77.83;100735.97;4125129;28;20320;-49
2021/12/17 00:11:20;;;;;;;33.88;24.98;;;;;;;7.46;77.32;100738.84;4155255;28;20208;-49
2021/12/17 00:13:21;;;;;;;25.40;23.00;;;;;;;7.48;77.37;100734.91;4158350;28;20207;-49
2021/12/17 00:15:23;;;;;;;25.70;23.20;;;;;;;7.46;77.17;100736.97;4138894;28;20229;-49
2021/12/17 00:17:31;;;;;;;24.40;21.83;;;;;;;7.43;77.28;100725.59;4136726;28;20570;-49
2021/12/17 00:52:15;;;;;;;15.10;13.77;;;;;;;7.51;76.84;100709.19;4141365;28;20205;-50
2021/12/17 00:54:22;;;;;;;14.65;13.45;;;;;;;7.48;76.51;100707.69;4121767;28;20238;-50
2021/12/17 00:56:24;;;;;;;14.27;12.85;;;;;;;7.49;76.78;100708.53;4136047;28;20210;-50
2021/12/17 00:58:26;;;;;;;17.85;14.23;;;;;;;7.55;76.34;100705.09;4137837;28;20372;-49
2021/12/17 01:00:28;;;;;;;15.15;13.82;;;;;;;7.50;76.29;100704.78;4139295;28;20671;-50
2021/12/17 01:02:32;;;;;;;15.55;14.13;;;;;;;7.53;76.96;100701.69;4124603;28;20218;-50
2021/12/17 01:04:36;;;;;;;17.52;15.93;;;;;;;7.46;77.25;100703.44;4120639;28;20236;-49
2021/12/17 01:06:38;;;;;;;15.63;14.30;;;;;;;7.50;76.91;100696.59;4120278;28;20218;-50
2021/12/17 01:08:44;;;;;;;17.17;15.73;;;;;;;7.54;77.38;100700.66;4155268;28;20419;-49
2021/12/17 01:10:50;;;;;;;17.25;15.73;;;;;;;7.56;76.35;100698.63;4121967;28;20297;-49
2021/12/17 01:12:52;;;;;;;18.23;16.38;;;;;;;7.51;76.89;100699.16;4123435;28;20198;-48
2021/12/17 01:14:55;;;;;;;16.77;15.35;;;;;;;7.52;76.72;100691.81;4132080;28;20233;-49
2021/12/17 01:16:57;;;;;;;16.30;14.73;;;;;;;7.60;76.65;100702.69;4122262;28;20237;-49
2021/12/17 01:24:03;;;;;;;16.65;15.18;;;;;;;7.43;77.44;100703.78;4138013;28;21984;-49
2021/12/17 01:42:05;;;;;;;20.33;18.60;;;;;;;7.41;77.93;100695.78;4137683;28;20206;-50
2021/12/17 01:44:09;;;;;;;17.63;16.10;;;;;;;7.48;77.27;100704.13;4121807;28;20244;-50
2021/12/17 01:46:17;;;;;;;19.70;18.00;;;;;;;7.40;77.87;100695.97;4142139;28;20899;-49
2021/12/17 01:48:26;;;;;;;24.15;18.10;;;;;;;7.36;77.82;100694.63;4124733;28;20201;-50
2021/12/17 01:59:43;;;;;;;21.48;19.38;;;;;;;7.38;78.65;100700.75;4133720;28;20237;-49
2021/12/17 02:01:44;;;;;;;22.65;20.00;;;;;;;7.33;78.40;100704.00;4134041;28;20240;-49
2021/12/17 02:03:46;;;;;;;23.00;20.80;;;;;;;7.34;78.37;100700.25;4131834;28;20252;-49
2021/12/17 02:05:48;;;;;;;22.98;20.77;;;;;;;7.37;77.95;100704.50;4136196;28;20268;-48
2021/12/17 02:07:53;;;;;;;22.45;20.65;;;;;;;7.38;78.16;100700.75;4135958;28;20320;-50
2021/12/17 02:28:59;;;;;;;17.83;16.33;;;;;;;7.43;77.43;100695.63;4136222;28;20315;-49
2021/12/17 02:31:24;;;;;;;18.67;16.85;;;;;;;7.44;77.51;100683.69;4119787;28;20241;-49
2021/12/17 02:33:25;;;;;;;17.70;16.30;;;;;;;7.39;77.41;100691.53;4147420;28;21731;-49
2021/12/17 02:35:34;;;;;;;18.23;16.52;;;;;;;7.43;77.42;100693.72;4117274;28;20320;-50
2021/12/17 02:37:37;;;;;;;15.00;13.70;;;;;;;7.47;76.92;100681.47;4135031;28;20239;-50
2021/12/17 02:46:25;;;;;;;12.55;11.55;;;;;;;7.44;76.40;100680.97;4151210;28;21013;-49
2021/12/17 02:48:27;;;;;;;11.55;10.55;;;;;;;7.44;76.28;100678.25;4118862;28;20264;-48
2021/12/17 02:50:29;;;;;;;10.90;10.00;;;;;;;7.50;75.57;100677.53;4134959;28;20229;-50
2021/12/17 02:52:31;;;;;;;12.00;11.10;;;;;;;7.51;75.59;100673.78;4153069;28;20259;-49
2021/12/17 02:54:34;;;;;;;12.43;11.60;;;;;;;7.53;75.32;100682.63;4109301;28;20226;-49
2021/12/17 02:56:36;;;;;;;12.32;11.32;;;;;;;7.56;75.42;100671.38;4148712;28;20280;-48
2021/12/17 02:58:38;;;;;;;10.80;9.90;;;;;;;7.60;75.06;100675.44;4138092;28;20217;-49
2021/12/17 03:00:42;;;;;;;11.38;10.60;;;;;;;7.61;75.33;100674.44;4153827;28;20241;-49
2021/12/17 03:02:45;;;;;;;12.40;11.23;;;;;;;7.49;75.67;100670.41;4139968;28;20218;-48
2021/12/17 03:04:46;;;;;;;10.40;9.60;;;;;;;7.46;75.16;100671.59;4127939;28;20240;-49
2021/12/17 03:06:48;;;;;;;12.77;11.88;;;;;;;7.46;75.77;100670.75;4141408;28;20206;-48
2021/12/17 03:08:50;;;;;;;10.70;9.90;;;;;;;7.49;75.92;100665.78;4153994;28;20291;-50
2021/12/17 03:10:53;;;;;;;11.50;10.60;;;;;;;7.48;75.48;100663.25;4155132;28;20249;-49
2021/12/17 03:13:01;;;;;;;11.18;10.07;;;;;;;7.54;75.55;100670.69;4124643;28;20238;-50
2021/12/17 03:18:44;;;;;;;11.70;10.75;;;;;;;7.51;75.41;100668.34;4111438;28;20206;-50
2021/12/17 03:24:18;;;;;;;10.60;9.48;;;;;;;7.53;74.92;100671.72;4137449;28;20206;-49
2021/12/17 03:26:26;;;;;;;10.27;9.20;;;;;;;7.56;75.07;100665.94;4133262;28;20218;-49
2021/12/17 03:28:28;;;;;;;10.80;9.90;;;;;;;7.58;74.65;100656.56;4142067;28;20205;-48
2021/12/17 03:30:29;;;;;;;11.40;9.70;;;;;;;7.55;74.69;100661.53;4126079;28;20253;-51
2021/12/17 03:32:31;;;;;;;9.68;8.93;;;;;;;7.51;75.10;100662.88;4138061;28;20201;-49
2021/12/17 03:34:33;;;;;;;9.82;8.93;;;;;;;7.50;74.92;100666.66;4124905;28;20233;-50
2021/12/17 03:36:35;;;;;;;11.23;10.23;;;;;;;7.54;74.75;100668.81;4125363;28;20237;-49
2021/12/17 03:38:37;;;;;;;10.98;10.15;;;;;;;7.47;74.95;100666.97;4142677;28;20202;-49
2021/12/17 03:40:41;;;;;;;10.40;9.40;;;;;;;7.45;75.39;100674.50;4146065;28;20237;-48
2021/12/17 03:42:47;;;;;;;10.73;9.93;;;;;;;7.50;75.12;100683.00;4126664;28;20206;-48
2021/12/17 03:44:49;;;;;;;10.43;9.57;;;;;;;7.54;74.50;100681.59;4127294;28;20647;-51
2021/12/17 03:46:51;;;;;;;11.98;11.07;;;;;;;7.44;74.75;100679.09;4127020;28;20206;-49
2021/12/17 03:48:53;;;;;;;11.70;10.73;;;;;;;7.43;74.68;100677.38;4127745;28;20214;-49
2021/12/17 03:50:55;;;;;;;11.23;10.38;;;;;;;7.42;74.66;100670.25;4124302;28;20243;-48
2021/12/17 03:52:57;;;;;;;11.15;10.15;;;;;;;7.43;74.62;100676.56;4133908;28;20680;-49
2021/12/17 03:54:59;;;;;;;11.65;10.65;;;;;;;7.41;74.28;100673.16;4135605;28;20241;-49
2021/12/17 03:57:01;;;;;;;11.68;10.68;;;;;;;7.39;74.37;100678.78;4139920;28;20229;-49
2021/12/17 03:59:10;;;;;;;12.13;11.13;;;;;;;7.36;74.90;100670.13;4125794;28;20214;-49
2021/12/17 04:01:12;;;;;;;11.65;10.63;;;;;;;7.37;74.35;100677.25;4129321;28;20236;-49
2021/12/17 04:03:14;;;;;;;12.63;11.45;;;;;;;7.33;74.14;100678.63;4140868;28;20662;-51
2021/12/17 04:05:16;;;;;;;11.43;10.43;;;;;;;7.41;73.54;100673.16;4142823;28;20679;-48
2021/12/17 04:07:18;;;;;;;12.75;11.75;;;;;;;7.37;74.10;100680.81;4140411;28;20649;-50
2021/12/17 04:09:22;;;;;;;9.43;8.60;;;;;;;7.35;73.00;100673.88;4126299;28;20206;-49
2021/12/17 04:11:24;;;;;;;8.45;7.72;;;;;;;7.36;71.80;100672.84;4141159;28;20230;-50
2021/12/17 04:13:29;;;;;;;7.95;7.25;;;;;;;7.43;70.51;100676.56;4140664;28;20210;-50
2021/12/17 04:15:35;;;;;;;6.60;6.07;;;;;;;7.37;71.62;100677.25;4124621;28;22122;-48
2021/12/17 04:17:47;;;;;;;7.55;6.85;;;;;;;7.32;71.07;100675.06;4151271;28;20868;-51
2021/12/17 04:19:49;;;;;;;8.73;8.02;;;;;;;7.38;71.99;100673.50;4149289;28;20201;-49
2021/12/17 04:21:51;;;;;;;8.98;8.20;;;;;;;7.32;72.19;100663.31;4121658;28;20228;-49
2021/12/17 04:23:56;;;;;;;8.90;8.23;;;;;;;7.30;72.59;100659.94;4124097;28;20215;-49
2021/12/17 04:25:58;;;;;;;9.55;8.75;;;;;;;7.25;72.93;100657.75;4122200;28;20567;-49
2021/12/17 04:27:59;;;;;;;9.95;9.23;;;;;;;7.26;72.96;100658.56;4137408;28;20209;-50
2021/12/17 04:30:01;;;;;;;11.05;10.15;;;;;;;7.29;73.19;100658.25;4139694;28;20292;-50
2021/12/17 04:32:03;;;;;;;10.05;9.25;;;;;;;7.19;72.62;100655.72;4141206;28;20225;-49
2021/12/17 04:34:06;;;;;;;10.38;9.60;;;;;;;7.30;71.71;100659.94;4139405;28;20244;-48
2021/12/17 04:36:11;;;;;;;9.65;8.75;;;;;;;7.25;71.53;100660.47;4132690;28;20420;-48
2021/12/17 04:38:14;;;;;;;8.32;7.50;;;;;;;7.30;71.08;100660.75;4123619;28;20227;-50
2021/12/17 04:40:18;;;;;;;8.93;8.13;;;;;;;7.26;71.36;100664.88;4124889;28;20237;-49
2021/12/17 04:44:53;;;;;;;9.25;8.45;;;;;;;7.27;72.10;100663.84;4120120;28;20742;-49
2021/12/17 04:58:19;;;;;;;8.70;7.90;;;;;;;7.16;72.75;100652.50;4140976;28;20575;-49
2021/12/17 05:00:25;;;;;;;12.70;11.30;;;;;;;7.10;72.97;100648.59;4123454;28;20264;-49
2021/12/17 05:02:28;;;;;;;10.70;9.80;;;;;;;7.12;72.97;100651.16;4136677;28;20284;-49
2021/12/17 05:04:29;;;;;;;13.15;10.82;;;;;;;7.23;72.15;100658.94;4128590;28;20230;-49
2021/12/17 05:06:32;;;;;;;10.57;9.65;;;;;;;7.14;71.96;100651.81;4129523;28;20198;-49
2021/12/17 05:08:35;;;;;;;10.77;9.77;;;;;;;7.15;72.08;100650.81;4135025;28;20655;-50
2021/12/17 05:19:54;;;;;;;11.40;10.30;;;;;;;7.06;72.17;100651.84;4139073;28;20210;-48
2021/12/17 05:21:56;;;;;;;11.85;10.77;;;;;;;7.07;72.52;100648.09;4125245;28;20668;-50
2021/12/17 05:23:58;;;;;;;13.10;12.05;;;;;;;7.16;72.63;100644.34;4125861;28;20317;-50
2021/12/17 05:26:03;;;;;;;12.60;11.43;;;;;;;7.15;72.12;100638.03;4143955;28;20678;-49
2021/12/17 05:28:05;;;;;;;11.07;8.65;;;;;;;7.14;71.43;100646.38;4147501;28;20210;-48
2021/12/17 05:30:07;;;;;;;9.48;8.68;;;;;;;7.14;71.43;100646.38;4142321;28;20209;-49
2021/12/17 05:32:09;;;;;;;10.27;9.48;;;;;;;7.15;71.44;100645.38;4124321;28;20284;-48
2021/12/17 05:34:11;;;;;;;10.95;9.90;;;;;;;7.10;71.75;100631.44;4123131;28;20211;-49
2021/12/17 05:36:13;;;;;;;11.77;10.77;;;;;;;7.08;71.47;100633.47;4138429;28;20213;-48
2021/12/17 05:38:16;;;;;;;10.43;9.63;;;;;;;7.13;71.44;100636.50;4124126;28;20776;-50
2021/12/17 05:40:18;;;;;;;10.55;9.65;;;;;;;7.05;71.51;100626.50;4141560;28;20687;-48
2021/12/17 05:42:19;;;;;;;8.98;8.13;;;;;;;7.07;70.10;100632.63;4137500;28;20238;-48
2021/12/17 05:44:21;;;;;;;8.02;7.43;;;;;;;7.10;71.10;100636.88;4126146;28;20210;-48
2021/12/17 05:46:38;;;;;;;8.48;7.88;;;;;;;6.97;70.61;100636.56;4158825;28;20296;-48
2021/12/17 05:48:40;;;;;;;9.13;8.38;;;;;;;6.96;70.34;100637.59;4138528;28;20204;-48
2021/12/17 05:50:44;;;;;;;8.40;7.80;;;;;;;6.93;70.32;100646.09;4139699;28;20213;-50
2021/12/17 05:52:45;;;;;;;9.40;8.60;;;;;;;6.87;71.06;100644.06;4157137;28;20233;-51
2021/12/17 05:54:47;;;;;;;10.43;9.63;;;;;;;6.87;70.68;100646.78;4148221;28;20695;-48
2021/12/17 05:56:50;;;;;;;9.75;8.95;;;;;;;6.91;70.05;100638.13;4143084;28;20304;-50
2021/12/17 05:58:51;;;;;;;9.65;8.88;;;;;;;6.84;71.31;100631.69;4125041;28;20218;-50
2021/12/17 06:00:54;;;;;;;11.00;10.15;;;;;;;6.81;71.64;100637.47;4129419;28;20217;-51
2021/12/17 06:03:00;;;;;;;12.50;11.50;;;;;;;6.85;71.83;100643.41;4142008;28;20197;-50
2021/12/17 06:05:02;;;;;;;12.13;11.02;;;;;;;6.79;72.06;100650.41;4141283;28;20684;-50
2021/12/17 06:07:04;;;;;;;11.68;10.68;;;;;;;6.84;72.05;100641.72;4161823;28;20209;-50
2021/12/17 06:09:08;;;;;;;12.65;11.35;;;;;;;6.80;71.85;100649.38;4130279;28;20209;-51
2021/12/17 06:11:10;;;;;;;11.23;10.32;;;;;;;6.75;71.97;100642.78;4137222;28;20218;-55
2021/12/17 06:13:12;;;;;;;11.88;10.98;;;;;;;6.79;72.31;100649.53;4136756;28;20233;-49
2021/12/17 06:15:15;;;;;;;11.07;10.15;;;;;;;6.74;72.74;100646.50;4139763;28;20244;-51
2021/12/17 06:17:17;;;;;;;11.32;10.43;;;;;;;6.82;72.78;100650.03;4141314;28;20651;-51
2021/12/17 06:19:19;;;;;;;10.10;9.07;;;;;;;6.85;71.21;100659.75;4142326;28;20209;-49
2021/12/17 06:21:21;;;;;;;10.13;8.85;;;;;;;6.83;70.92;100650.91;4124589;28;20206;-50
2021/12/17 06:23:23;;;;;;;7.90;7.25;;;;;;;6.79;70.60;100655.00;4137019;28;20209;-49
2021/12/17 06:25:25;;;;;;;11.07;9.10;;;;;;;6.69;71.55;100652.47;4140726;28;20221;-53
2021/12/17 06:27:29;;;;;;;9.50;8.80;;;;;;;6.74;71.58;100662.81;4125399;28;20275;-50
2021/12/17 06:29:30;;;;;;;10.50;9.70;;;;;;;6.72;71.74;100662.16;4142769;28;20209;-50
2021/12/17 06:31:32;;;;;;;10.52;9.73;;;;;;;6.73;71.43;100661.13;4143829;28;20222;-48
2021/12/17 06:33:34;;;;;;;11.38;10.32;;;;;;;6.63;72.20;100672.19;4146120;28;20226;-48
2021/12/17 06:35:36;;;;;;;12.13;11.13;;;;;;;6.66;72.38;100665.56;4144986;28;20249;-48
2021/12/17 06:37:40;;;;;;;11.98;11.05;;;;;;;6.62;72.35;100669.66;4142663;28;20344;-50
2021/12/17 06:39:42;;;;;;;10.23;9.43;;;;;;;6.64;72.69;100667.59;4124734;28;20244;-49
2021/12/17 06:41:44;;;;;;;12.45;11.45;;;;;;;6.65;72.59;100674.75;4141148;28;20217;-48
2021/12/17 06:43:46;;;;;;;11.15;10.32;;;;;;;6.64;72.80;100678.50;4140714;28;20214;-49
2021/12/17 06:46:01;;;;;;;10.55;9.65;;;;;;;6.57;72.43;100682.91;4128428;28;20320;-49
2021/12/17 06:48:04;;;;;;;11.00;10.20;;;;;;;6.67;71.40;100680.84;4155133;28;20267;-50
2021/12/17 07:10:17;;;;;;;10.43;9.63;;;;;;;6.59;71.81;100703.50;4139779;28;21178;-52
2021/12/17 07:29:03;;;;;;;8.57;7.88;;;;;;;6.58;71.00;100700.94;4160954;28;20232;-51
2021/12/17 07:35:26;;;;;;;7.85;7.22;;;;;;;6.69;70.81;100706.88;4156285;28;20228;-51
2021/12/17 07:39:05;;;;;;;9.40;8.60;;;;;;;6.54;70.97;100708.59;4161492;28;20706;-51
2021/12/17 07:41:07;;;;;;;9.40;8.60;;;;;;;6.62;70.86;100707.75;4158491;28;20281;-50
2021/12/17 07:43:13;;;;;;;8.68;8.00;;;;;;;6.56;71.18;100713.88;4143753;28;20847;-51
2021/12/17 07:45:15;;;;;;;10.30;9.55;;;;;;;6.57;71.49;100718.28;4159967;28;20228;-52
2021/12/17 07:47:16;;;;;;;10.40;9.60;;;;;;;6.52;71.71;100723.38;4143224;28;20236;-50
2021/12/17 07:49:18;;;;;;;11.30;10.35;;;;;;;6.51;71.48;100716.25;4159184;28;20820;-50
2021/12/17 07:51:22;;;;;;;11.95;11.02;;;;;;;6.59;71.71;100724.38;4155389;28;20211;-53
2021/12/17 07:53:24;;;;;;;10.18;9.38;;;;;;;6.48;71.89;100722.03;4156933;28;20200;-51
2021/12/17 07:55:26;;;;;;;14.85;10.85;;;;;;;6.56;71.91;100724.75;4170535;28;20223;-51
2021/12/17 07:57:31;;;;;;;10.93;9.60;;;;;;;6.58;72.23;100728.13;4140746;28;20237;-49
2021/12/17 07:59:32;;;;;;;12.07;11.13;;;;;;;6.58;72.01;100728.13;4139734;28;20240;-49
2021/12/17 08:01:39;;;;;;;12.43;11.32;;;;;;;6.58;72.37;100717.25;4157566;28;20605;-50
2021/12/17 08:03:42;;;;;;;11.48;10.48;;;;;;;6.57;72.27;100721.00;4170686;28;20200;-51
2021/12/17 08:05:44;;;;;;;20.38;12.55;;;;;;;6.55;72.27;100723.06;4169302;28;20236;-50
2021/12/17 08:07:46;;;;;;;9.80;9.02;;;;;;;6.55;71.77;100729.31;4172730;28;20696;-49
2021/12/17 08:09:48;;;;;;;8.55;7.85;;;;;;;6.55;70.90;100729.31;4159458;28;20704;-50
2021/12/17 08:11:55;;;;;;;16.02;9.15;;;;;;;6.59;71.65;100724.38;4175078;28;20223;-50
2021/12/17 08:13:58;;;;;;;9.75;8.85;;;;;;;6.57;71.64;100727.28;4143524;28;20209;-50
2021/12/17 08:25:14;;;;;;;10.23;9.35;;;;;;;6.66;71.06;100730.84;4160770;28;20601;-51
2021/12/17 08:31:36;;;;;;;9.13;8.35;;;;;;;6.67;70.33;100727.97;4160720;28;20646;-50
2021/12/17 08:33:37;;;;;;;8.68;8.07;;;;;;;6.66;71.14;100728.13;4144260;28;20233;-49
2021/12/17 08:35:39;;;;;;;9.60;8.40;;;;;;;6.64;70.71;100727.44;4142186;28;20769;-49
2021/12/17 08:37:44;;;;;;;8.57;7.88;;;;;;;6.69;71.07;100731.34;4143434;28;20564;-50
2021/12/17 08:39:46;;;;;;;9.95;9.15;;;;;;;6.72;70.52;100724.72;4140372;28;20326;-50
2021/12/17 08:41:51;;;;;;;9.23;8.63;;;;;;;6.85;70.44;100730.50;4143420;28;20198;-49
2021/12/17 08:43:53;;;;;;;9.20;8.50;;;;;;;6.89;70.68;100721.81;4172348;28;20196;-49
2021/12/17 08:45:55;;;;;;;8.63;7.95;;;;;;;6.84;69.26;100724.22;4145394;28;20232;-51
2021/12/17 08:47:57;;;;;;;11.63;9.25;;;;;;;6.81;69.73;100726.41;4174651;28;20238;-50
2021/12/17 08:50:05;;;;;;;10.38;9.68;;;;;;;6.75;70.26;100735.28;4160808;28;20244;-49
2021/12/17 08:52:08;;;;;;;31.95;8.52;;;;;;;6.81;70.84;100727.25;4173489;28;20220;-51
2021/12/17 08:54:10;;;;;;;9.88;9.07;;;;;;;6.96;69.94;100733.69;4158360;28;20232;-51
2021/12/17 08:56:18;;;;;;;9.23;8.40;;;;;;;6.86;69.74;100729.47;4141145;28;20240;-50
2021/12/17 08:58:20;;;;;;;8.93;8.23;;;;;;;6.93;69.76;100738.63;4142526;28;20322;-51
2021/12/17 09:00:27;;;;;;;8.10;7.43;;;;;;;6.96;69.82;100743.75;4160873;28;20205;-50
2021/12/17 09:02:29;;;;;;;8.63;8.02;;;;;;;6.93;69.85;100733.19;4176686;28;20196;-50
2021/12/17 09:04:31;;;;;;;8.60;8.00;;;;;;;6.97;69.09;100729.13;4140033;28;20666;-50
2021/12/17 09:06:32;;;;;;;6.97;6.47;;;;;;;6.91;69.38;100736.09;4140575;28;20277;-50
2021/12/17 09:08:34;;;;;;;9.15;8.18;;;;;;;7.00;68.87;100731.47;4125496;28;20221;-51
2021/12/17 09:10:36;;;;;;;7.55;6.95;;;;;;;6.99;68.86;100733.38;4158161;28;20213;-52
2021/12/17 09:12:41;;;;;;;7.47;6.88;;;;;;;7.07;69.30;100735.19;4138905;28;20257;-50
2021/12/17 09:14:43;;;;;;;7.85;7.35;;;;;;;7.00;69.29;100742.38;4173908;28;20228;-49
2021/12/17 09:16:44;;;;;;;6.22;5.82;;;;;;;7.08;68.73;100728.75;4141679;28;20586;-50
2021/12/17 09:18:48;;;;;;;9.45;8.75;;;;;;;7.13;68.86;100737.22;4140586;28;20324;-50
2021/12/17 09:20:50;;;;;;;6.60;6.20;;;;;;;7.19;67.95;100736.53;4141435;28;20591;-49
2021/12/17 09:22:52;;;;;;;7.43;6.82;;;;;;;7.18;68.04;100751.19;4176358;28;20196;-49
2021/12/17 09:24:54;;;;;;;8.40;7.80;;;;;;;7.21;68.71;100748.13;4159325;28;20232;-50
2021/12/17 09:26:56;;;;;;;6.10;5.70;;;;;;;7.28;68.34;100749.97;4173100;28;20232;-49
2021/12/17 09:28:57;;;;;;;7.80;7.25;;;;;;;7.17;68.20;100753.03;4140214;28;20301;-50
2021/12/17 09:30:59;;;;;;;6.28;5.88;;;;;;;7.04;68.53;100766.38;4144000;28;20229;-51
2021/12/17 09:33:01;;;;;;;6.60;6.18;;;;;;;7.03;68.90;100761.09;4126963;28;20773;-51
2021/12/17 09:35:03;;;;;;;7.10;6.60;;;;;;;6.95;68.44;100755.66;4172536;28;20650;-52
2021/12/17 09:37:05;;;;;;;7.45;6.95;;;;;;;6.94;68.43;100767.53;4157352;28;20216;-50
2021/12/17 09:39:07;;;;;;;7.20;6.68;;;;;;;6.98;68.69;100758.91;4125953;28;20210;-49
2021/12/17 09:41:09;;;;;;;5.72;5.32;;;;;;;7.05;68.31;100761.75;4141212;28;20666;-51
2021/12/17 09:43:15;;;;;;;6.88;5.72;;;;;;;7.07;68.29;100755.13;4143282;28;20197;-49
2021/12/17 09:45:18;;;;;;;6.32;5.93;;;;;;;7.19;68.03;100766.50;4145487;28;20260;-49
2021/12/17 09:47:19;;;;;;;5.45;5.07;;;;;;;7.11;67.63;100769.25;4143920;28;20300;-50
2021/12/17 09:49:21;;;;;;;5.70;5.28;;;;;;;7.13;68.54;100764.47;4173289;28;20310;-50
2021/12/17 09:51:23;;;;;;;5.43;5.07;;;;;;;7.13;68.18;100769.91;4156592;28;20212;-51
2021/12/17 09:53:25;;;;;;;5.20;4.80;;;;;;;7.28;67.95;100776.38;4159810;28;20259;-50
2021/12/17 09:55:27;;;;;;;6.28;5.78;;;;;;;7.35;67.93;100774.63;4155093;28;20918;-51
2021/12/17 09:57:35;;;;;;;5.60;5.15;;;;;;;7.39;67.53;100774.13;4169687;28;20246;-51
2021/12/17 09:59:36;;;;;;;5.55;5.15;;;;;;;7.31;67.97;100773.28;4155757;28;20204;-51
2021/12/17 10:01:39;;;;;;;5.40;5.00;;;;;;;7.28;67.93;100781.81;4157716;28;20205;-50
2021/12/17 10:03:41;;;;;;;5.15;4.80;;;;;;;7.20;67.73;100773.63;4154078;28;20547;-50
2021/12/17 10:05:44;;;;;;;4.70;4.30;;;;;;;7.27;67.94;100780.09;4173161;28;20228;-51
2021/12/17 10:07:47;;;;;;;5.78;5.38;;;;;;;7.20;68.28;100779.09;4140381;28;20544;-49
2021/12/17 10:09:53;;;;;;;5.00;4.60;;;;;;;7.34;67.30;100781.09;4156183;28;20205;-51
2021/12/17 10:12:06;;;;;;;6.00;5.35;;;;;;;7.43;67.62;100782.78;4155037;28;20786;-50
2021/12/17 10:14:18;;;;;;;4.68;4.28;;;;;;;7.32;67.09;100777.69;4140927;28;20217;-51
2021/12/17 10:16:20;;;;;;;4.38;4.07;;;;;;;7.22;67.21;100766.16;4172945;28;20891;-50
2021/12/17 10:18:36;;;;;;;5.72;5.22;;;;;;;7.36;67.88;100774.44;4140277;28;20275;-50
2021/12/17 10:20:54;;;;;;;18.02;10.68;;;;;;;7.36;66.78;100765.44;4139724;28;20245;-50
2021/12/17 10:22:58;;;;;;;14.60;13.20;;;;;;;7.44;67.15;100765.41;4133686;28;20209;-50
2021/12/17 10:25:09;;;;;;;12.70;11.50;;;;;;;7.37;66.20;100764.41;4138863;28;20261;-50
2021/12/17 10:27:19;;;;;;;13.82;12.65;;;;;;;7.54;66.99;100763.31;4172848;28;20270;-50
2021/12/17 10:29:21;;;;;;;8.00;7.18;;;;;;;7.92;65.36;100752.44;4157118;28;20264;-50
2021/12/17 10:31:24;;;;;;;6.35;5.85;;;;;;;7.83;65.08;100758.09;4155474;28;20210;-52
2021/12/17 10:33:28;;;;;;;6.03;5.53;;;;;;;7.88;65.39;100755.72;4171948;28;20666;-50
2021/12/17 10:35:31;;;;;;;5.95;5.45;;;;;;;7.72;65.43;100753.03;4142996;28;20233;-50
2021/12/17 10:37:49;;;;;;;6.88;6.00;;;;;;;7.59;65.94;100766.38;4173935;28;20223;-49
2021/12/17 10:39:51;;;;;;;6.47;5.95;;;;;;;7.65;65.72;100758.34;4145013;28;20208;-50
2021/12/17 10:41:53;;;;;;;6.35;5.93;;;;;;;7.63;65.95;100759.56;4141663;28;20209;-50
2021/12/17 10:44:06;;;;;;;6.13;5.63;;;;;;;7.74;66.16;100761.88;4173351;28;20236;-49
2021/12/17 10:48:28;;;;;;;9.43;8.52;;;;;;;7.94;64.88;100757.69;4154381;28;20548;-50
2021/12/17 10:50:29;;;;;;;8.95;8.27;;;;;;;8.29;65.12;100751.72;4155026;28;20193;-51
2021/12/17 10:52:41;;;;;;;8.30;7.70;;;;;;;8.34;64.41;100749.31;4172751;28;20263;-51
2021/12/17 10:54:43;;;;;;;7.43;6.93;;;;;;;8.15;64.91;100750.59;4143485;28;20272;-49
2021/12/17 10:56:55;;;;;;;7.68;6.65;;;;;;;7.91;65.94;100739.84;4160606;28;20255;-49
2021/12/17 10:59:12;;;;;;;6.60;6.05;;;;;;;7.98;65.03;100745.41;4141665;28;20245;-51
2021/12/17 11:01:14;;;;;;;6.95;6.38;;;;;;;7.89;65.02;100747.31;4138512;28;20209;-51
2021/12/17 11:03:16;;;;;;;8.32;7.47;;;;;;;7.81;65.31;100749.28;4136222;28;20206;-49
2021/12/17 11:05:18;;;;;;;7.25;6.65;;;;;;;7.74;65.90;100740.94;4140980;28;20291;-52
2021/12/17 11:07:20;;;;;;;8.32;7.60;;;;;;;7.78;65.85;100741.44;4143781;28;20201;-49
2021/12/17 11:09:35;;;;;;;8.30;7.80;;;;;;;7.85;65.81;100750.59;4142802;28;20664;-51
2021/12/17 11:11:42;;;;;;;8.20;7.60;;;;;;;7.70;65.67;100746.94;4170095;28;20246;-50
2021/12/17 11:13:58;;;;;;;8.52;7.85;;;;;;;7.97;66.18;100746.44;4172310;28;20228;-51
2021/12/17 11:16:00;;;;;;;8.30;7.70;;;;;;;8.49;63.95;100742.03;4137274;28;20230;-51
2021/12/17 11:18:04;;;;;;;6.88;6.38;;;;;;;8.61;63.59;100735.13;4140371;28;20663;-50
2021/12/17 11:20:11;;;;;;;6.15;5.65;;;;;;;8.98;63.18;100733.25;4157532;28;20267;-50
2021/12/17 11:22:13;;;;;;;5.90;5.40;;;;;;;9.35;61.23;100735.06;4160335;28;20212;-51
2021/12/17 11:24:15;;;;;;;6.07;5.57;;;;;;;9.57;60.49;100728.66;4138113;28;20655;-51
2021/12/17 11:26:16;;;;;;;6.03;5.50;;;;;;;10.10;59.45;100731.03;4158461;28;20207;-50
2021/12/17 11:28:18;;;;;;;6.82;5.72;;;;;;;10.55;57.40;100725.22;4171436;28;20208;-51
2021/12/17 11:30:23;;;;;;;5.30;4.90;;;;;;;10.79;56.68;100731.97;4143351;28;20225;-50
2021/12/17 11:32:25;;;;;;;5.40;5.00;;;;;;;11.57;56.08;100728.97;4161609;28;20204;-49
2021/12/17 11:34:30;;;;;;;6.72;6.13;;;;;;;10.82;56.34;100723.38;4143907;28;20213;-50
2021/12/17 11:36:32;;;;;;;5.00;4.60;;;;;;;11.64;55.87;100719.75;4155518;28;20219;-49
2021/12/17 11:38:42;;;;;;;8.20;5.65;;;;;;;11.91;55.07;100716.06;4159136;28;20217;-50
2021/12/17 11:41:16;;;;;;;7.30;6.65;;;;;;;12.00;54.49;100714.84;4169736;28;20240;-50
2021/12/17 11:43:49;;;;;;;5.40;4.95;;;;;;;12.20;53.57;100715.78;4143528;28;20228;-50
2021/12/17 11:46:00;;;;;;;7.47;6.47;;;;;;;11.96;53.08;100718.22;4151894;28;20240;-52
2021/12/17 11:48:23;;;;;;;5.63;5.13;;;;;;;11.48;55.09;100711.81;4139152;28;21810;-51
2021/12/17 11:50:25;;;;;;;5.90;4.78;;;;;;;11.33;54.96;100713.00;4141078;28;20206;-51
2021/12/17 11:52:33;;;;;;;8.93;5.53;;;;;;;11.78;54.61;100721.50;4160277;28;20359;-50
2021/12/17 11:54:35;;;;;;;6.15;5.55;;;;;;;12.24;53.90;100717.03;4153486;28;20259;-50
2021/12/17 11:56:48;;;;;;;6.22;5.53;;;;;;;11.41;54.58;100716.44;4174004;28;20208;-49
2021/12/17 11:58:53;;;;;;;5.82;5.43;;;;;;;12.43;53.07;100710.75;4144037;28;20201;-50
2021/12/17 12:00:55;;;;;;;6.60;6.10;;;;;;;12.33;52.96;100715.81;4162087;28;20607;-52
2021/12/17 12:03:19;;;;;;;5.72;5.32;;;;;;;12.47;53.29;100701.03;4164100;28;20214;-50
2021/12/17 12:05:36;;;;;;;9.23;4.78;;;;;;;12.08;53.04;100706.44;4160877;28;20231;-50
2021/12/17 12:07:38;;;;;;;6.93;6.28;;;;;;;12.39;52.80;100712.22;4176448;28;20208;-50
2021/12/17 12:10:08;;;;;;;5.95;5.55;;;;;;;11.64;53.93;100708.78;4147301;28;20213;-50
2021/12/17 12:12:11;;;;;;;9.25;6.30;;;;;;;11.35;54.70;100699.91;4161582;28;20577;-49
2021/12/17 12:14:30;;;;;;;7.25;6.65;;;;;;;11.81;54.47;100698.31;4140845;28;20221;-49
2021/12/17 12:16:40;;;;;;;8.85;5.82;;;;;;;11.94;54.65;100699.22;4162052;28;20251;-49
2021/12/17 12:18:57;;;;;;;9.55;8.13;;;;;;;12.04;54.41;100705.13;4161793;28;20801;-50
2021/12/17 12:20:59;;;;;;;8.68;7.85;;;;;;;11.85;54.08;100705.91;4142486;28;20205;-50
2021/12/17 12:23:27;;;;;;;7.55;7.05;;;;;;;11.71;54.28;100715.13;4156505;28;20213;-49
2021/12/17 12:25:30;;;;;;;7.65;7.13;;;;;;;11.57;55.00;100707.84;4161241;28;20718;-50
2021/12/17 12:27:32;;;;;;;9.38;8.50;;;;;;;11.42;55.63;100701.66;4175937;28;20208;-51
2021/12/17 12:29:34;;;;;;;18.58;7.57;;;;;;;11.57;55.04;100709.78;4143918;28;20605;-51
2021/12/17 12:31:37;;;;;;;8.43;7.72;;;;;;;11.75;54.31;100710.94;4173504;28;20705;-51
2021/12/17 12:34:00;;;;;;;9.93;9.02;;;;;;;11.70;54.81;100707.97;4143204;28;20265;-50
2021/12/17 12:36:02;;;;;;;10.80;8.30;;;;;;;12.17;54.52;100699.69;4159439;28;20225;-51
2021/12/17 12:38:19;;;;;;;9.70;8.90;;;;;;;11.38;54.84;100705.84;4174459;28;20216;-50
2021/12/17 12:40:22;;;;;;;9.80;9.10;;;;;;;12.22;54.66;100702.66;4160005;28;20251;-50